Time;durP1;ratioP1;P1;durP2;ratioP2;P2;SDS_P1;SDS_P2;PMS_P1;PMS_P2;Temp;Humidity;BMP_temperature;BMP_pressure;BME280_temperature;BME280_humidity;BME280_pressure;Samples;Min_cycle;Max_cycle;Signal;HPM_P1;HPM_P2
2021/01/23 00:01:11;;;;;;;5.00;3.77;;;24.10;76.20;;;;;;5033215;28;20449;-61
2021/01/23 00:03:38;;;;;;;3.77;3.40;;;24.10;77.00;;;;;;5033823;28;20502;-60
2021/01/23 00:06:05;;;;;;;4.30;3.67;;;24.10;76.30;;;;;;5033819;28;20510;-60
2021/01/23 00:08:31;;;;;;;3.57;3.27;;;24.10;76.30;;;;;;5033812;28;20456;-59
2021/01/23 00:10:57;;;;;;;3.77;3.47;;;24.10;76.20;;;;;;5033479;28;21010;-60
2021/01/23 00:13:23;;;;;;;3.63;3.20;;;24.10;76.20;;;;;;5033649;28;20490;-60
2021/01/23 00:15:50;;;;;;;3.17;2.93;;;24.10;76.30;;;;;;5033678;28;20437;-61
2021/01/23 00:18:16;;;;;;;5.10;3.60;;;24.10;76.20;;;;;;5033339;28;20449;-60
2021/01/23 00:20:43;;;;;;;5.40;3.43;;;24.10;76.20;;;;;;5033115;28;20472;-60
2021/01/23 00:23:09;;;;;;;4.70;3.73;;;24.10;76.40;;;;;;5033602;28;20444;-60
2021/01/23 00:25:35;;;;;;;3.97;3.60;;;24.10;76.30;;;;;;5033617;28;20443;-61
2021/01/23 00:28:02;;;;;;;3.83;3.50;;;24.10;76.50;;;;;;5033588;28;20493;-60
2021/01/23 00:30:28;;;;;;;4.30;3.60;;;24.10;76.30;;;;;;5034104;28;20448;-60
2021/01/23 00:32:54;;;;;;;3.67;3.37;;;24.10;76.20;;;;;;5033153;28;20492;-60
2021/01/23 00:35:21;;;;;;;4.07;3.37;;;24.10;76.20;;;;;;5033238;28;20452;-60
2021/01/23 00:37:48;;;;;;;4.27;3.87;;;24.10;76.50;;;;;;5033474;28;20862;-60
2021/01/23 00:40:15;;;;;;;4.47;3.40;;;24.10;76.40;;;;;;5033510;28;20452;-60
2021/01/23 00:42:42;;;;;;;3.63;3.30;;;24.10;76.40;;;;;;5033145;28;20444;-60
2021/01/23 00:45:09;;;;;;;5.30;4.10;;;24.00;76.30;;;;;;5033417;28;20453;-60
2021/01/23 00:47:35;;;;;;;3.63;3.33;;;24.10;76.40;;;;;;5033568;28;20448;-60
2021/01/23 00:50:02;;;;;;;6.30;3.43;;;24.10;76.60;;;;;;5033408;28;20539;-61
2021/01/23 00:52:28;;;;;;;3.60;3.17;;;24.10;76.60;;;;;;5033345;28;20491;-61
2021/01/23 00:54:55;;;;;;;2.90;2.70;;;24.00;76.20;;;;;;5033029;28;20455;-61
2021/01/23 00:57:21;;;;;;;4.07;3.53;;;24.00;76.30;;;;;;5033329;28;20847;-61
2021/01/23 00:59:47;;;;;;;3.90;3.50;;;24.00;76.30;;;;;;5033288;28;20463;-61
2021/01/23 01:02:14;;;;;;;3.70;3.40;;;24.00;76.40;;;;;;5033247;28;20467;-60
2021/01/23 01:04:40;;;;;;;3.43;3.13;;;24.00;76.40;;;;;;5033214;28;20452;-61
2021/01/23 01:10:29;;;;;;;6.53;4.10;;;24.00;76.30;;;;;;5033039;28;20911;-60
2021/01/23 01:12:56;;;;;;;4.60;3.40;;;24.00;76.40;;;;;;5034190;28;20494;-60
2021/01/23 01:15:22;;;;;;;4.33;3.60;;;24.00;76.30;;;;;;5036867;28;20464;-60
2021/01/23 01:17:48;;;;;;;5.37;3.70;;;24.00;76.40;;;;;;5036816;28;20441;-61
2021/01/23 01:20:15;;;;;;;3.80;3.33;;;24.00;76.50;;;;;;5036664;28;20468;-60
2021/01/23 01:22:41;;;;;;;3.77;3.33;;;24.00;76.40;;;;;;5036754;28;20820;-61
2021/01/23 01:25:08;;;;;;;3.43;3.03;;;24.00;76.50;;;;;;5036504;28;20440;-61
2021/01/23 01:27:36;;;;;;;6.60;3.40;;;24.00;76.60;;;;;;5037441;28;20450;-61
2021/01/23 01:30:03;;;;;;;3.83;3.43;;;24.00;76.70;;;;;;5037126;28;20454;-61
2021/01/23 01:32:29;;;;;;;4.47;3.60;;;24.00;76.40;;;;;;5036202;28;21058;-61
2021/01/23 01:34:55;;;;;;;4.40;3.73;;;24.00;76.30;;;;;;5036478;28;20559;-60
2021/01/23 01:37:21;;;;;;;3.77;3.43;;;24.00;76.60;;;;;;5036483;28;20803;-61
2021/01/23 01:39:48;;;;;;;5.73;3.30;;;24.00;76.60;;;;;;5036427;28;20809;-61
2021/01/23 01:42:14;;;;;;;4.50;3.13;;;24.00;76.70;;;;;;5036349;28;20449;-61
2021/01/23 01:44:41;;;;;;;7.00;3.50;;;24.00;76.80;;;;;;5036355;28;20451;-61
2021/01/23 01:47:07;;;;;;;4.57;3.87;;;24.00;76.80;;;;;;5036317;28;20567;-61
2021/01/23 01:49:33;;;;;;;3.77;3.30;;;24.00;76.90;;;;;;5035956;28;20451;-61
2021/01/23 01:52:00;;;;;;;3.70;3.07;;;24.00;76.70;;;;;;5035861;28;20538;-60
2021/01/23 01:54:26;;;;;;;3.17;2.87;;;24.00;76.70;;;;;;5036162;28;20468;-61
2021/01/23 01:56:53;;;;;;;4.57;3.80;;;24.00;76.70;;;;;;5036154;28;20448;-60
2021/01/23 01:59:19;;;;;;;4.03;3.63;;;24.00;76.60;;;;;;5036083;28;20464;-61
2021/01/23 02:01:46;;;;;;;4.70;3.50;;;24.00;76.70;;;;;;5036062;28;20805;-61
2021/01/23 02:04:27;;;;;;;4.80;3.57;;;24.00;76.70;;;;;;5035979;28;20498;-61
2021/01/23 02:07:12;;;;;;;4.83;3.53;;;24.00;76.60;;;;;;5036010;28;20433;-61
2021/01/23 02:10:03;;;;;;;3.90;3.60;;;24.00;76.60;;;;;;5035912;28;20429;-61
2021/01/23 02:12:37;;;;;;;4.63;3.90;;;24.00;76.70;;;;;;5032673;28;20489;-61
2021/01/23 02:15:08;;;;;;;3.20;2.90;;;24.00;76.90;;;;;;5035621;28;20428;-61
2021/01/23 02:17:41;;;;;;;4.33;3.70;;;24.00;76.90;;;;;;5035806;28;20449;-61
2021/01/23 02:20:19;;;;;;;3.87;3.47;;;24.00;76.90;;;;;;5035546;28;20476;-60
2021/01/23 02:23:19;;;;;;;3.50;3.20;;;24.00;76.90;;;;;;5035427;28;20466;-61
2021/01/23 02:26:04;;;;;;;3.67;3.37;;;24.00;76.70;;;;;;4954738;28;20435;-61
2021/01/23 02:29:00;;;;;;;4.77;3.50;;;24.00;76.80;;;;;;4955213;29;20498;-61
2021/01/23 02:31:29;;;;;;;3.50;3.20;;;24.00;76.80;;;;;;5017371;28;20777;-61
2021/01/23 02:33:59;;;;;;;4.30;3.07;;;23.90;76.90;;;;;;5035355;28;20488;-60
2021/01/23 02:36:26;;;;;;;4.07;2.77;;;23.90;76.70;;;;;;5035454;28;20429;-61
2021/01/23 02:38:54;;;;;;;4.37;3.77;;;23.90;76.80;;;;;;5035011;28;20474;-61
2021/01/23 02:41:20;;;;;;;3.53;3.20;;;23.90;76.70;;;;;;5035232;28;20449;-61
2021/01/23 02:43:47;;;;;;;3.33;3.00;;;24.00;77.10;;;;;;5034952;28;20944;-60
2021/01/23 02:46:15;;;;;;;4.03;3.53;;;24.00;77.00;;;;;;5034878;28;20453;-61
2021/01/23 02:48:43;;;;;;;3.53;3.10;;;24.00;77.10;;;;;;5035164;28;20503;-60
2021/01/23 02:51:21;;;;;;;3.67;3.40;;;23.90;77.10;;;;;;5035104;28;20445;-61
2021/01/23 02:53:50;;;;;;;3.60;3.30;;;24.00;77.00;;;;;;5035044;28;20919;-61
2021/01/23 02:56:24;;;;;;;3.57;3.27;;;23.90;77.00;;;;;;5034997;28;20864;-61
2021/01/23 02:58:52;;;;;;;3.33;3.03;;;23.90;77.00;;;;;;5035033;28;20433;-60
2021/01/23 03:01:22;;;;;;;3.57;3.27;;;23.90;76.70;;;;;;5034936;28;20440;-60
2021/01/23 03:03:53;;;;;;;2.63;2.43;;;24.00;77.10;;;;;;5034626;28;20900;-60
2021/01/23 03:06:20;;;;;;;3.40;3.10;;;24.00;77.20;;;;;;5034844;28;20527;-60
2021/01/23 03:08:46;;;;;;;4.10;3.73;;;23.90;76.90;;;;;;5034756;28;20441;-60
2021/01/23 03:11:13;;;;;;;4.10;3.30;;;23.90;76.90;;;;;;5034712;28;20452;-60
2021/01/23 03:13:39;;;;;;;3.80;3.27;;;23.90;77.00;;;;;;5034639;28;21009;-61
2021/01/23 03:16:06;;;;;;;3.50;3.20;;;23.90;77.00;;;;;;5034670;28;20777;-60
2021/01/23 03:18:32;;;;;;;4.53;3.10;;;23.90;77.10;;;;;;5034256;28;20440;-60
2021/01/23 03:20:59;;;;;;;3.80;3.50;;;23.90;77.10;;;;;;5034287;28;20847;-60
2021/01/23 03:23:25;;;;;;;3.57;3.27;;;23.90;77.00;;;;;;5035049;28;20445;-60
2021/01/23 03:25:52;;;;;;;3.80;3.50;;;23.90;77.10;;;;;;5034194;28;20456;-61
2021/01/23 03:28:20;;;;;;;4.00;3.70;;;23.90;77.00;;;;;;5034120;28;20958;-60
2021/01/23 03:30:47;;;;;;;3.37;3.07;;;23.90;77.10;;;;;;5034033;28;20449;-60
2021/01/23 03:33:13;;;;;;;5.73;2.90;;;23.90;77.00;;;;;;5035060;28;20820;-60
2021/01/23 03:35:39;;;;;;;3.60;3.30;;;23.90;77.10;;;;;;5033863;28;20453;-61
2021/01/23 03:38:07;;;;;;;3.97;3.03;;;23.90;77.10;;;;;;5033574;28;20449;-61
2021/01/23 03:40:33;;;;;;;3.60;3.10;;;23.90;77.20;;;;;;5034236;28;20455;-60
2021/01/23 03:42:59;;;;;;;3.53;3.20;;;23.90;77.10;;;;;;5033909;28;20449;-60
2021/01/23 03:45:26;;;;;;;3.70;3.30;;;23.90;77.00;;;;;;5034111;28;20491;-60
2021/01/23 03:47:52;;;;;;;3.03;2.73;;;23.90;77.00;;;;;;5034660;28;20450;-61
2021/01/23 03:50:18;;;;;;;3.37;3.17;;;23.90;77.00;;;;;;5034541;28;20490;-60
2021/01/23 03:52:44;;;;;;;4.60;3.97;;;23.90;77.10;;;;;;5033929;28;20488;-61
2021/01/23 03:55:12;;;;;;;3.80;3.50;;;23.90;77.10;;;;;;5033694;28;20453;-60
2021/01/23 03:57:38;;;;;;;3.20;3.00;;;23.90;77.20;;;;;;5033667;28;20451;-60
2021/01/23 04:00:06;;;;;;;3.53;3.07;;;23.90;77.10;;;;;;5034693;28;20506;-60
2021/01/23 04:02:33;;;;;;;3.47;3.10;;;23.90;76.90;;;;;;5033940;28;20447;-60
2021/01/23 04:04:59;;;;;;;3.33;3.03;;;23.90;77.10;;;;;;5033539;28;20939;-61
2021/01/23 04:07:25;;;;;;;2.93;2.73;;;23.90;77.10;;;;;;5033828;28;20442;-60
2021/01/23 04:09:52;;;;;;;3.03;2.73;;;23.90;77.10;;;;;;5033849;28;20450;-60
2021/01/23 04:12:19;;;;;;;3.60;3.30;;;23.80;77.10;;;;;;5033709;28;20484;-61
2021/01/23 04:14:45;;;;;;;3.30;3.10;;;23.90;77.10;;;;;;5033769;28;20450;-61
2021/01/23 04:17:11;;;;;;;3.00;2.80;;;23.90;77.20;;;;;;5033788;28;20446;-61
2021/01/23 04:19:38;;;;;;;4.60;2.97;;;23.90;77.10;;;;;;5033395;28;20942;-60
2021/01/23 04:22:04;;;;;;;3.13;2.83;;;23.80;77.10;;;;;;5033276;28;20541;-60
2021/01/23 04:24:30;;;;;;;3.50;3.07;;;23.90;77.00;;;;;;5033657;28;20444;-59
2021/01/23 04:26:56;;;;;;;3.80;3.20;;;23.80;77.00;;;;;;5033621;28;20436;-60
2021/01/23 04:29:25;;;;;;;3.40;3.10;;;23.90;77.20;;;;;;5033571;28;20503;-59
2021/01/23 04:31:51;;;;;;;3.13;2.93;;;23.80;76.90;;;;;;5033582;28;20807;-60
2021/01/23 04:34:18;;;;;;;2.80;2.60;;;23.80;77.00;;;;;;5033487;28;20483;-60
2021/01/23 04:36:44;;;;;;;3.47;2.87;;;23.90;77.20;;;;;;5033540;28;20461;-60
2021/01/23 04:39:10;;;;;;;3.27;2.97;;;23.80;77.10;;;;;;5033156;28;20444;-60
2021/01/23 04:41:37;;;;;;;3.20;3.00;;;23.90;77.20;;;;;;5033497;28;20443;-60
2021/01/23 04:44:04;;;;;;;4.23;3.23;;;23.80;77.10;;;;;;5033448;28;20441;-61
2021/01/23 04:46:32;;;;;;;3.43;3.13;;;23.80;77.10;;;;;;5033433;28;20441;-61
2021/01/23 04:48:58;;;;;;;3.90;3.10;;;23.80;77.20;;;;;;5036322;28;21005;-60
2021/01/23 04:51:26;;;;;;;3.70;3.33;;;23.80;77.00;;;;;;5037404;28;20437;-60
2021/01/23 04:53:53;;;;;;;3.47;3.17;;;23.80;77.20;;;;;;5037284;28;20490;-61
2021/01/23 04:56:19;;;;;;;3.13;2.93;;;23.80;77.20;;;;;;5037297;28;20567;-61
2021/01/23 04:58:45;;;;;;;2.90;2.70;;;23.80;77.20;;;;;;5037252;28;20799;-61
2021/01/23 05:01:13;;;;;;;3.00;2.80;;;23.90;77.30;;;;;;5037167;28;20785;-60
2021/01/23 05:03:59;;;;;;;3.30;3.07;;;23.80;77.10;;;;;;5037130;28;20473;-61
2021/01/23 05:06:26;;;;;;;3.00;2.80;;;23.80;76.70;;;;;;5037853;28;20494;-61
2021/01/23 05:08:52;;;;;;;3.10;2.90;;;23.80;77.10;;;;;;5037062;28;20445;-60
2021/01/23 05:11:19;;;;;;;3.57;3.30;;;23.80;77.00;;;;;;5036966;28;20440;-61
2021/01/23 05:14:09;;;;;;;3.10;2.70;;;23.80;77.20;;;;;;5036902;28;20492;-60
2021/01/23 05:16:35;;;;;;;3.23;2.93;;;23.80;77.00;;;;;;5036979;28;20429;-60
2021/01/23 05:19:03;;;;;;;3.40;3.10;;;23.80;77.10;;;;;;5036855;28;20447;-61
2021/01/23 05:21:29;;;;;;;3.20;2.97;;;23.80;77.00;;;;;;5036455;28;20876;-61
2021/01/23 05:24:05;;;;;;;3.73;3.37;;;23.80;77.00;;;;;;5036753;28;20495;-60
2021/01/23 05:26:32;;;;;;;3.30;3.00;;;23.90;77.30;;;;;;5036760;28;20429;-60
2021/01/23 05:29:12;;;;;;;3.07;2.87;;;23.80;77.20;;;;;;5036326;28;20444;-61
2021/01/23 05:31:39;;;;;;;2.87;2.67;;;23.80;77.10;;;;;;5036721;28;20434;-60
2021/01/23 05:34:31;;;;;;;3.20;2.90;;;23.80;77.20;;;;;;5036554;28;20495;-60
2021/01/23 05:36:58;;;;;;;3.20;2.90;;;23.90;77.10;;;;;;5036236;28;20957;-60
2021/01/23 05:39:47;;;;;;;3.00;2.80;;;23.80;77.10;;;;;;5036497;28;20530;-60
2021/01/23 05:42:13;;;;;;;3.40;3.10;;;23.80;76.90;;;;;;5036483;28;20440;-61
2021/01/23 05:44:39;;;;;;;3.67;3.33;;;23.80;77.20;;;;;;5036378;28;20806;-60
2021/01/23 05:47:26;;;;;;;2.97;2.77;;;23.80;77.30;;;;;;5036322;28;20448;-61
2021/01/23 05:49:54;;;;;;;2.97;2.77;;;23.80;76.90;;;;;;5036385;28;20439;-60
2021/01/23 05:52:20;;;;;;;4.13;3.70;;;23.80;77.10;;;;;;5035806;28;20444;-60
2021/01/23 05:54:47;;;;;;;3.00;2.57;;;23.80;77.00;;;;;;5036199;28;20448;-60
2021/01/23 05:57:14;;;;;;;3.10;2.90;;;23.80;77.00;;;;;;5036176;28;20807;-61
2021/01/23 05:59:41;;;;;;;3.37;3.07;;;23.80;77.00;;;;;;5035222;28;20799;-61
2021/01/23 06:02:09;;;;;;;3.30;3.00;;;23.80;77.00;;;;;;5036055;28;20448;-61
2021/01/23 06:04:36;;;;;;;2.50;2.30;;;23.80;77.00;;;;;;5036095;28;20452;-60
2021/01/23 06:07:03;;;;;;;2.77;2.57;;;23.80;77.00;;;;;;5036013;28;20455;-60
2021/01/23 06:09:38;;;;;;;3.30;3.00;;;23.80;77.00;;;;;;5035974;28;20510;-60
2021/01/23 06:12:05;;;;;;;3.30;3.10;;;23.80;76.90;;;;;;5035516;28;20922;-61
2021/01/23 06:14:38;;;;;;;3.73;2.87;;;23.80;77.00;;;;;;5035827;28;20494;-61
2021/01/23 06:17:05;;;;;;;2.70;2.50;;;23.80;77.00;;;;;;5035837;28;20490;-61
2021/01/23 06:19:43;;;;;;;3.20;3.00;;;23.80;77.10;;;;;;5035692;28;20448;-60
2021/01/23 06:22:11;;;;;;;2.77;2.57;;;23.80;76.90;;;;;;5035685;28;20450;-61
2021/01/23 06:24:54;;;;;;;3.30;3.07;;;23.80;77.10;;;;;;5035693;28;20831;-60
2021/01/23 06:27:45;;;;;;;2.87;2.67;;;23.80;76.90;;;;;;5035611;28;20477;-60
2021/01/23 06:30:31;;;;;;;3.17;2.87;;;23.80;77.10;;;;;;5035575;28;20432;-60
2021/01/23 06:32:57;;;;;;;3.67;3.37;;;23.80;77.00;;;;;;5035510;28;20569;-61
2021/01/23 06:35:24;;;;;;;3.00;2.70;;;23.80;77.10;;;;;;5035414;28;20452;-60
2021/01/23 06:37:50;;;;;;;3.30;3.00;;;23.80;77.00;;;;;;5035381;28;20443;-61
2021/01/23 06:40:27;;;;;;;3.20;2.90;;;23.80;77.00;;;;;;5035311;28;20448;-60
2021/01/23 06:42:54;;;;;;;4.10;3.00;;;23.80;77.10;;;;;;5035340;28;20841;-60
2021/01/23 06:45:23;;;;;;;2.80;2.60;;;23.80;77.00;;;;;;5035233;28;20448;-60
2021/01/23 06:47:52;;;;;;;3.03;2.83;;;23.80;77.00;;;;;;5034902;28;20490;-61
2021/01/23 06:50:43;;;;;;;3.30;3.00;;;23.80;77.20;;;;;;5035130;28;20449;-61
2021/01/23 06:53:22;;;;;;;2.80;2.60;;;23.80;76.90;;;;;;5015543;28;20482;-61
2021/01/23 06:55:50;;;;;;;3.30;3.10;;;23.80;77.00;;;;;;5034811;28;20432;-61
2021/01/23 06:58:18;;;;;;;3.40;3.10;;;23.90;77.20;;;;;;5035031;28;20564;-60
2021/01/23 07:00:45;;;;;;;3.30;3.10;;;23.80;77.00;;;;;;5035020;28;20472;-61
2021/01/23 07:03:14;;;;;;;2.87;2.60;;;23.80;77.00;;;;;;5034906;28;20436;-61
2021/01/23 07:05:51;;;;;;;2.73;2.53;;;23.80;77.10;;;;;;5034867;28;20794;-61
2021/01/23 07:08:25;;;;;;;3.63;3.33;;;23.80;76.90;;;;;;5034816;28;20435;-60
2021/01/23 07:11:13;;;;;;;3.07;2.80;;;23.80;77.10;;;;;;5034742;28;20443;-61
2021/01/23 07:13:55;;;;;;;3.27;2.40;;;23.80;76.70;;;;;;5035172;28;20479;-60
2021/01/23 07:16:21;;;;;;;2.70;2.50;;;23.80;77.10;;;;;;5034684;28;20432;-60
2021/01/23 07:18:52;;;;;;;2.90;2.60;;;23.80;77.10;;;;;;5034616;28;20439;-60
2021/01/23 07:21:20;;;;;;;2.50;2.30;;;23.80;77.10;;;;;;5034248;28;20533;-61
2021/01/23 07:23:47;;;;;;;2.97;2.77;;;23.80;77.10;;;;;;5034534;28;20455;-60
2021/01/23 07:26:15;;;;;;;3.00;2.67;;;23.80;77.10;;;;;;5034467;28;20798;-60
2021/01/23 07:28:45;;;;;;;2.90;2.70;;;23.80;77.10;;;;;;5034432;28;20449;-60
2021/01/23 07:31:24;;;;;;;2.97;2.77;;;23.80;77.10;;;;;;5034107;28;20447;-61
2021/01/23 07:33:53;;;;;;;3.20;2.90;;;23.80;77.20;;;;;;5034284;28;20503;-61
2021/01/23 07:36:33;;;;;;;3.13;2.93;;;23.80;77.20;;;;;;5034015;28;20464;-60
2021/01/23 07:39:01;;;;;;;2.40;2.20;;;23.80;77.10;;;;;;5034271;28;20459;-61
2021/01/23 07:41:31;;;;;;;3.20;2.87;;;23.80;77.10;;;;;;5033950;28;20448;-61
2021/01/23 07:43:59;;;;;;;2.77;2.57;;;23.80;77.20;;;;;;5033866;28;20949;-60
2021/01/23 07:46:32;;;;;;;2.70;2.50;;;23.80;77.20;;;;;;5034198;28;20855;-60
2021/01/23 07:48:59;;;;;;;2.93;2.73;;;23.80;77.20;;;;;;5033792;28;20909;-61
2021/01/23 07:51:27;;;;;;;3.10;2.90;;;23.80;77.10;;;;;;5034058;28;20449;-61
2021/01/23 07:54:09;;;;;;;2.90;2.70;;;23.80;77.10;;;;;;5033997;28;20538;-60
2021/01/23 07:56:36;;;;;;;3.20;2.90;;;23.90;77.20;;;;;;5034101;28;20435;-61
2021/01/23 07:59:02;;;;;;;4.10;2.60;;;23.80;77.30;;;;;;5033961;28;20470;-61
2021/01/23 08:01:29;;;;;;;6.97;3.50;;;23.90;77.50;;;;;;5033910;28;20444;-60
2021/01/23 08:03:56;;;;;;;8.23;3.37;;;23.80;77.60;;;;;;5033875;28;20447;-61
2021/01/23 08:06:24;;;;;;;3.80;3.50;;;23.80;77.20;;;;;;5033533;28;20925;-60
2021/01/23 08:08:51;;;;;;;5.50;3.00;;;23.80;76.60;;;;;;5033899;28;20449;-61
2021/01/23 08:11:35;;;;;;;4.23;2.67;;;23.80;76.40;;;;;;5033699;28;20496;-60
2021/01/23 08:14:12;;;;;;;3.77;2.57;;;23.80;76.50;;;;;;5033355;28;20487;-61
2021/01/23 08:16:52;;;;;;;2.30;2.10;;;23.80;76.80;;;;;;5033755;28;20493;-61
2021/01/23 08:19:18;;;;;;;2.83;2.63;;;23.80;76.90;;;;;;5033706;28;20497;-61
2021/01/23 08:22:04;;;;;;;3.57;3.17;;;23.80;77.10;;;;;;5032984;28;20472;-63
2021/01/23 08:24:31;;;;;;;3.70;3.00;;;23.80;77.10;;;;;;5034478;28;20614;-60
2021/01/23 08:27:01;;;;;;;3.10;2.90;;;23.80;78.10;;;;;;5033597;28;20444;-61
2021/01/23 08:29:28;;;;;;;2.97;2.77;;;23.80;77.30;;;;;;5033594;28;20447;-60
2021/01/23 08:32:01;;;;;;;2.90;2.60;;;23.80;77.30;;;;;;5033633;28;20912;-60
2021/01/23 08:34:27;;;;;;;7.03;3.10;;;23.80;77.20;;;;;;5033498;28;20491;-60
2021/01/23 08:36:54;;;;;;;3.00;2.70;;;23.80;77.10;;;;;;5033172;28;20453;-60
2021/01/23 08:39:21;;;;;;;4.33;2.90;;;23.90;77.10;;;;;;5033234;28;20451;-61
2021/01/23 08:41:47;;;;;;;3.30;3.00;;;23.80;76.90;;;;;;5033572;28;20449;-61
2021/01/23 08:44:13;;;;;;;3.23;2.73;;;23.80;76.80;;;;;;5033488;28;20443;-61
2021/01/23 08:46:40;;;;;;;2.77;2.40;;;23.80;76.70;;;;;;5033449;28;20773;-61
2021/01/23 08:49:06;;;;;;;2.57;2.37;;;23.80;76.40;;;;;;5033485;28;20448;-61
2021/01/23 08:51:33;;;;;;;2.60;2.40;;;23.80;76.50;;;;;;5033132;28;20953;-61
2021/01/23 08:54:00;;;;;;;3.20;3.00;;;23.80;76.30;;;;;;5032970;28;21085;-60
2021/01/23 08:56:27;;;;;;;3.80;2.60;;;23.80;76.30;;;;;;5033495;28;20443;-61
2021/01/23 08:58:53;;;;;;;2.60;2.33;;;23.80;76.30;;;;;;5032931;28;20450;-61
2021/01/23 09:01:19;;;;;;;3.10;2.60;;;23.80;76.20;;;;;;5032905;28;20450;-61
2021/01/23 09:03:46;;;;;;;3.03;2.83;;;23.80;76.00;;;;;;5032967;28;20440;-60
2021/01/23 09:06:12;;;;;;;4.80;2.70;;;23.80;75.90;;;;;;5032897;28;20931;-64
2021/01/23 09:08:38;;;;;;;3.30;2.47;;;23.80;75.70;;;;;;5033200;28;20803;-64
2021/01/23 09:11:04;;;;;;;2.67;2.47;;;23.80;75.50;;;;;;5033204;28;20447;-65
2021/01/23 09:13:31;;;;;;;4.33;2.40;;;23.80;75.40;;;;;;5033113;28;20491;-63
2021/01/23 09:15:58;;;;;;;3.13;2.80;;;23.80;75.30;;;;;;5033156;28;20455;-63
2021/01/23 09:18:24;;;;;;;2.40;2.20;;;23.90;75.40;;;;;;5033098;28;20474;-63
2021/01/23 09:20:50;;;;;;;2.83;2.50;;;23.90;75.30;;;;;;5033114;28;20485;-62
2021/01/23 09:23:16;;;;;;;2.90;2.70;;;23.90;75.20;;;;;;5033089;28;20841;-61
2021/01/23 09:25:43;;;;;;;2.60;2.20;;;23.90;75.10;;;;;;5032684;28;20444;-61
2021/01/23 09:28:10;;;;;;;2.33;2.13;;;23.90;74.80;;;;;;5033035;28;20445;-61
2021/01/23 09:30:37;;;;;;;2.00;1.87;;;23.90;74.80;;;;;;5032884;28;20498;-61
2021/01/23 09:33:04;;;;;;;2.73;2.20;;;23.90;74.70;;;;;;5032747;28;20488;-61
2021/01/23 09:35:30;;;;;;;2.50;2.30;;;23.90;74.60;;;;;;5034858;28;20456;-60
2021/01/23 09:37:56;;;;;;;2.80;2.60;;;23.90;74.80;;;;;;5036229;28;20449;-60
2021/01/23 09:40:22;;;;;;;2.20;2.00;;;23.90;74.80;;;;;;5037284;28;20452;-60
2021/01/23 09:42:49;;;;;;;2.43;2.10;;;24.00;74.90;;;;;;5036409;28;20449;-61
2021/01/23 09:45:15;;;;;;;2.63;2.10;;;23.90;74.70;;;;;;5036361;28;20449;-62
2021/01/23 09:47:42;;;;;;;4.43;2.60;;;24.00;74.70;;;;;;5035976;28;20886;-60
2021/01/23 09:50:09;;;;;;;5.30;2.40;;;23.90;74.10;;;;;;5036304;28;20444;-61
2021/01/23 09:52:35;;;;;;;3.93;2.53;;;23.90;73.80;;;;;;5036206;28;20447;-60
2021/01/23 09:55:02;;;;;;;3.13;2.83;;;23.90;73.60;;;;;;5036182;28;20450;-60
2021/01/23 09:57:28;;;;;;;4.40;2.20;;;23.90;72.80;;;;;;5036192;28;20445;-60
2021/01/23 09:59:54;;;;;;;2.77;2.57;;;23.90;72.60;;;;;;5035741;28;20455;-61
2021/01/23 10:02:20;;;;;;;2.33;2.13;;;23.90;72.00;;;;;;5036836;28;20528;-61
2021/01/23 10:04:48;;;;;;;3.53;2.17;;;23.90;72.20;;;;;;5036017;28;20465;-61
2021/01/23 10:07:14;;;;;;;4.37;2.57;;;23.90;72.60;;;;;;5035952;28;20438;-60
2021/01/23 10:09:40;;;;;;;6.23;2.90;;;23.90;72.70;;;;;;5036028;28;20433;-60
2021/01/23 10:12:07;;;;;;;5.33;2.60;;;23.90;72.80;;;;;;5035579;28;20453;-59
2021/01/23 10:14:34;;;;;;;6.63;2.70;;;23.90;72.90;;;;;;5035874;28;20491;-61
2021/01/23 10:17:00;;;;;;;7.07;2.47;;;23.90;73.00;;;;;;5035887;28;20459;-60
2021/01/23 10:19:26;;;;;;;6.40;2.47;;;23.90;73.10;;;;;;5035765;28;20440;-60
2021/01/23 10:21:53;;;;;;;4.17;2.77;;;23.90;73.20;;;;;;5035273;28;20483;-60
2021/01/23 10:24:19;;;;;;;4.40;2.30;;;23.90;73.20;;;;;;5035311;28;20502;-60
2021/01/23 10:26:46;;;;;;;21.07;3.33;;;23.90;73.20;;;;;;5035292;28;20444;-61
2021/01/23 10:29:12;;;;;;;9.40;2.60;;;23.90;73.20;;;;;;5035595;28;20457;-61
2021/01/23 10:31:38;;;;;;;11.47;3.00;;;23.90;73.30;;;;;;5036324;28;20449;-61
2021/01/23 10:34:05;;;;;;;49.43;7.03;;;23.90;73.30;;;;;;5035432;28;20488;-60
2021/01/23 10:36:31;;;;;;;163.57;16.30;;;23.90;73.40;;;;;;5035403;28;20452;-61
2021/01/23 10:38:58;;;;;;;162.53;15.87;;;23.90;73.40;;;;;;5035383;28;20455;-60
2021/01/23 10:41:24;;;;;;;209.57;21.60;;;23.90;73.60;;;;;;5035048;28;20448;-61
2021/01/23 10:43:50;;;;;;;215.83;23.23;;;23.90;73.70;;;;;;5034987;28;20455;-60
2021/01/23 10:46:17;;;;;;;213.00;22.03;;;23.90;73.70;;;;;;5034664;28;20444;-60
2021/01/23 10:48:43;;;;;;;208.67;22.90;;;23.90;73.70;;;;;;5035197;28;20503;-60
2021/01/23 10:51:09;;;;;;;336.17;32.80;;;23.90;73.70;;;;;;5035125;28;20451;-61
2021/01/23 10:53:36;;;;;;;257.87;27.60;;;23.90;73.80;;;;;;5034950;28;20489;-61
2021/01/23 10:56:03;;;;;;;240.17;27.60;;;23.90;73.80;;;;;;5035076;28;20954;-61
2021/01/23 10:58:30;;;;;;;252.73;25.87;;;23.90;73.80;;;;;;5035032;28;20456;-60
2021/01/23 11:00:56;;;;;;;192.07;24.00;;;23.90;73.90;;;;;;5034878;28;20455;-61
2021/01/23 11:03:22;;;;;;;230.63;28.40;;;23.90;73.80;;;;;;5034876;28;20497;-60
2021/01/23 11:05:51;;;;;;;237.20;25.40;;;23.90;73.90;;;;;;5034839;28;20460;-61
2021/01/23 11:08:17;;;;;;;225.67;27.27;;;23.90;73.90;;;;;;5034949;28;20477;-61
2021/01/23 11:10:43;;;;;;;245.87;25.13;;;23.90;73.90;;;;;;5034865;28;20467;-61
2021/01/23 11:13:10;;;;;;;227.13;27.80;;;23.90;73.80;;;;;;5034690;28;20477;-61
2021/01/23 11:15:37;;;;;;;168.00;21.27;;;23.90;73.80;;;;;;5034683;28;20452;-61
2021/01/23 11:18:03;;;;;;;188.93;22.50;;;23.90;73.70;;;;;;5034385;28;20444;-61
2021/01/23 11:20:29;;;;;;;191.77;23.23;;;23.90;73.60;;;;;;5034360;28;20482;-61
2021/01/23 11:22:56;;;;;;;179.00;20.50;;;24.00;73.80;;;;;;5034581;28;20451;-61
2021/01/23 11:25:22;;;;;;;171.47;22.30;;;24.00;73.70;;;;;;5034464;28;20449;-61
2021/01/23 11:27:48;;;;;;;144.07;19.70;;;24.00;73.60;;;;;;5034429;28;20500;-60
2021/01/23 11:30:17;;;;;;;147.60;16.83;;;24.00;73.70;;;;;;5034364;28;20444;-60
2021/01/23 11:32:43;;;;;;;152.10;18.53;;;24.00;73.60;;;;;;5034157;28;20521;-60
2021/01/23 11:35:10;;;;;;;201.83;23.27;;;24.00;73.50;;;;;;5034269;28;20445;-60
2021/01/23 11:37:36;;;;;;;155.53;22.00;;;24.00;73.50;;;;;;5034219;28;20457;-61
2021/01/23 11:40:04;;;;;;;174.97;19.27;;;24.00;73.40;;;;;;5034290;28;20448;-61
2021/01/23 11:42:30;;;;;;;132.17;16.87;;;24.00;73.20;;;;;;5034014;28;20449;-61
2021/01/23 11:44:56;;;;;;;124.50;14.23;;;24.00;73.10;;;;;;5033887;28;20452;-61
2021/01/23 11:47:23;;;;;;;104.87;16.33;;;24.00;73.20;;;;;;5034149;28;20445;-60
2021/01/23 11:49:50;;;;;;;137.43;17.30;;;24.00;73.20;;;;;;5034662;28;20476;-60
2021/01/23 11:52:16;;;;;;;109.07;13.43;;;24.00;73.30;;;;;;5034909;28;20782;-60
2021/01/23 11:54:42;;;;;;;88.83;12.67;;;24.00;73.30;;;;;;5034015;28;20499;-60
2021/01/23 11:57:09;;;;;;;95.60;13.20;;;24.00;73.30;;;;;;5033239;28;20506;-60
2021/01/23 11:59:35;;;;;;;105.33;15.53;;;24.00;73.30;;;;;;5034005;28;20445;-61
2021/01/23 12:02:01;;;;;;;86.53;13.80;;;24.00;73.30;;;;;;5033933;28;20812;-61
2021/01/23 12:04:29;;;;;;;79.70;13.90;;;24.10;73.40;;;;;;5034004;28;20835;-61
2021/01/23 12:06:55;;;;;;;94.40;13.50;;;24.10;73.50;;;;;;5033900;28;20448;-60
2021/01/23 12:09:21;;;;;;;70.87;11.93;;;24.10;73.50;;;;;;5033833;28;20446;-60
2021/01/23 12:11:47;;;;;;;83.80;12.90;;;24.10;73.50;;;;;;5033740;28;20471;-60
2021/01/23 12:14:14;;;;;;;81.57;13.00;;;24.10;73.50;;;;;;5033750;28;20488;-61
2021/01/23 12:16:41;;;;;;;73.43;12.17;;;24.00;73.40;;;;;;5033698;28;20506;-60
2021/01/23 12:19:07;;;;;;;71.40;12.10;;;24.10;73.50;;;;;;5033742;28;20448;-60
2021/01/23 12:21:34;;;;;;;65.13;12.07;;;24.10;73.50;;;;;;5033351;28;20524;-60
2021/01/23 12:24:01;;;;;;;65.47;10.37;;;24.00;73.30;;;;;;5033692;28;20453;-60
2021/01/23 12:26:27;;;;;;;54.90;10.60;;;24.10;73.40;;;;;;5033667;28;20441;-60
2021/01/23 12:28:53;;;;;;;49.43;10.13;;;24.10;73.40;;;;;;5033640;28;20536;-60
2021/01/23 12:31:20;;;;;;;83.13;10.30;;;24.10;73.70;;;;;;5033276;28;20936;-61
2021/01/23 12:33:46;;;;;;;55.53;10.57;;;24.10;73.40;;;;;;5033581;28;20487;-60
2021/01/23 12:36:12;;;;;;;50.47;10.00;;;24.10;73.40;;;;;;5033318;28;21078;-60
2021/01/23 12:38:40;;;;;;;63.87;10.80;;;24.10;73.40;;;;;;5033500;28;20451;-60
2021/01/23 12:41:06;;;;;;;61.40;9.27;;;24.10;73.30;;;;;;5033518;28;20810;-61
2021/01/23 12:43:32;;;;;;;50.10;8.07;;;24.10;73.30;;;;;;5033520;28;20441;-60
2021/01/23 12:45:59;;;;;;;60.87;12.10;;;24.10;73.30;;;;;;5033411;28;20444;-60
2021/01/23 12:48:25;;;;;;;48.37;8.10;;;24.10;73.30;;;;;;5033418;28;20506;-60
2021/01/23 12:50:51;;;;;;;47.37;10.07;;;24.10;73.30;;;;;;5033411;28;20436;-60
2021/01/23 12:53:18;;;;;;;50.17;8.90;;;24.10;73.30;;;;;;5032950;28;20477;-60